Time;durP1;ratioP1;P1;durP2;ratioP2;P2;SDS_P1;SDS_P2;PMS_P1;PMS_P2;Temp;Humidity;BMP_temperature;BMP_pressure;BME280_temperature;BME280_humidity;BME280_pressure;Samples;Min_cycle;Max_cycle;Signal;HPM_P1;HPM_P2
2021/05/11 00:00:06;;;;;;;4.60;1.63;;;12.80;99.90;;;12.92;84.24;100826.22;5041011;28;20051;-67
2021/05/11 00:02:32;;;;;;;6.82;2.55;;;12.80;99.90;;;12.90;84.08;100829.16;5074181;28;20479;-63
2021/05/11 00:04:58;;;;;;;6.10;1.88;;;12.90;99.90;;;12.97;83.44;100829.16;5040805;28;20036;-65
2021/05/11 00:07:24;;;;;;;14.70;2.00;;;12.90;99.90;;;12.92;83.10;100834.41;5074158;28;20106;-63
2021/05/11 00:09:50;;;;;;;5.72;1.65;;;13.00;99.90;;;12.89;83.65;100837.56;5075236;28;20503;-63
2021/05/11 00:12:15;;;;;;;8.48;2.78;;;13.00;99.90;;;12.99;83.15;100838.78;5074043;28;20433;-63
2021/05/11 00:14:41;;;;;;;6.47;1.80;;;13.00;99.90;;;13.10;81.58;100837.28;5074410;28;20041;-66
2021/05/11 00:17:07;;;;;;;9.90;1.60;;;13.00;99.90;;;12.98;81.30;100842.56;5073792;28;20048;-63
2021/05/11 00:19:35;;;;;;;6.88;1.67;;;12.90;99.90;;;13.03;80.54;100847.41;5073811;28;20512;-62
2021/05/11 00:22:01;;;;;;;5.68;2.00;;;12.80;99.90;;;12.98;80.74;100837.09;5075317;28;20055;-63
2021/05/11 00:24:27;;;;;;;6.55;2.42;;;12.90;99.90;;;13.11;80.48;100833.47;5074428;28;20436;-67
2021/05/11 00:26:52;;;;;;;7.53;1.67;;;12.90;99.90;;;13.11;80.71;100828.03;5073659;28;20035;-63
2021/05/11 00:29:18;;;;;;;10.70;2.53;;;12.90;99.90;;;13.07;81.03;100835.84;5073686;28;20119;-65
2021/05/11 00:31:44;;;;;;;16.80;4.60;;;12.80;99.90;;;13.08;80.66;100837.50;5074852;28;20048;-63
2021/05/11 00:34:10;;;;;;;15.32;3.15;;;12.80;99.90;;;12.96;82.00;100843.88;5073615;28;20036;-64
2021/05/11 00:36:36;;;;;;;5.00;2.00;;;12.90;99.90;;;12.85;82.71;100833.63;5073766;28;20387;-65
2021/05/11 00:39:04;;;;;;;10.75;2.25;;;12.90;99.90;;;12.80;83.02;100844.34;5073534;28;20060;-64
2021/05/11 00:41:29;;;;;;;10.55;2.45;;;12.80;99.90;;;12.80;82.61;100827.94;5073513;28;20043;-64
2021/05/11 00:43:55;;;;;;;10.18;2.83;;;12.80;99.90;;;12.79;83.02;100834.47;5073425;28;20032;-62
2021/05/11 00:46:21;;;;;;;10.10;2.75;;;12.80;99.90;;;12.90;82.20;100825.59;5056694;28;20119;-62
2021/05/11 00:48:47;;;;;;;10.27;3.25;;;12.80;99.90;;;13.03;81.25;100826.38;5073849;28;20121;-62
2021/05/11 00:51:13;;;;;;;10.55;2.47;;;12.80;99.90;;;13.07;81.32;100824.91;5073451;28;20556;-61
2021/05/11 00:53:42;;;;;;;5.50;1.67;;;12.90;99.90;;;13.01;82.41;100822.19;5073663;28;20029;-62
2021/05/11 00:56:10;;;;;;;9.40;1.95;;;13.00;99.90;;;13.04;82.11;100816.28;5074341;28;20127;-61
2021/05/11 00:58:36;;;;;;;5.57;2.08;;;13.00;99.90;;;13.08;81.98;100814.81;5040057;28;20498;-61
2021/05/11 01:01:03;;;;;;;7.05;2.05;;;13.10;99.90;;;13.00;82.17;100820.50;5074392;28;20047;-61
2021/05/11 01:03:29;;;;;;;8.50;2.03;;;13.10;99.90;;;12.98;82.68;100809.78;5072999;28;20037;-63
2021/05/11 01:05:55;;;;;;;10.43;2.22;;;13.10;99.90;;;12.85;83.48;100819.94;5056289;28;20044;-61
2021/05/11 01:08:21;;;;;;;12.80;2.00;;;13.00;99.90;;;12.85;83.43;100825.41;5073040;28;20035;-62
2021/05/11 01:10:47;;;;;;;8.40;2.40;;;13.10;99.90;;;12.84;84.07;100823.75;5073087;28;20040;-63
2021/05/11 01:13:13;;;;;;;9.35;2.10;;;13.10;99.90;;;12.80;84.91;100817.00;5056114;28;20425;-62
2021/05/11 01:15:41;;;;;;;8.90;2.20;;;13.10;99.90;;;12.77;84.78;100822.91;5055981;28;20410;-61
2021/05/11 01:18:11;;;;;;;9.15;2.72;;;13.10;99.90;;;12.78;84.87;100816.38;5072584;28;20044;-63
2021/05/11 01:20:43;;;;;;;9.52;2.63;;;13.10;99.90;;;12.75;84.65;100814.09;5056748;28;20033;-63
2021/05/11 01:25:46;;;;;;;10.80;2.65;;;13.00;99.90;;;12.56;87.27;100822.13;5057596;28;20047;-62
2021/05/11 01:50:28;;;;;;;13.65;3.92;;;12.80;99.90;;;12.39;88.43;100810.00;5056968;28;20047;-62
2021/05/11 02:23:04;;;;;;;28.50;10.25;;;12.10;99.90;;;11.50;97.04;100804.13;5072332;28;20467;-61
2021/05/11 02:25:30;;;;;;;26.73;11.07;;;12.00;99.90;;;11.48;97.36;100800.75;5071678;28;20410;-61
2021/05/11 02:27:56;;;;;;;27.73;9.63;;;12.00;99.90;;;11.50;96.40;100798.66;5054967;28;20086;-62
2021/05/11 02:30:23;;;;;;;35.50;10.05;;;11.90;99.90;;;11.50;96.11;100806.84;5054874;28;20043;-61
2021/05/11 02:32:49;;;;;;;26.13;7.82;;;11.90;99.90;;;11.48;96.18;100796.16;5071745;28;20063;-62
2021/05/11 02:35:18;;;;;;;24.63;8.65;;;11.90;99.90;;;11.55;95.50;100796.13;5071693;28;20029;-62
2021/05/11 02:37:45;;;;;;;26.17;8.15;;;11.80;99.90;;;11.41;98.25;100805.34;5038498;28;20561;-61
2021/05/11 02:40:13;;;;;;;18.73;8.82;;;11.80;99.90;;;11.39;98.16;100802.00;5071631;28;20133;-60
2021/05/11 02:42:41;;;;;;;18.75;9.95;;;11.80;99.90;;;11.34;98.37;100799.03;5055275;28;20391;-60
2021/05/11 02:45:11;;;;;;;23.83;9.32;;;11.70;99.90;;;11.33;97.79;100791.91;5054810;28;20119;-61
2021/05/11 02:47:48;;;;;;;27.02;9.20;;;11.70;99.90;;;11.22;98.29;100787.91;5058250;28;20032;-61
2021/05/11 02:50:29;;;;;;;16.77;7.50;;;11.70;99.90;;;11.08;99.34;100789.75;5060132;28;20112;-61
2021/05/11 02:52:56;;;;;;;27.13;8.13;;;11.60;99.90;;;11.07;100.00;100788.06;5075924;28;20436;-61
2021/05/11 02:55:23;;;;;;;21.38;8.43;;;11.50;99.90;;;11.03;100.00;100786.81;5075556;28;20028;-62
2021/05/11 02:57:50;;;;;;;20.10;7.40;;;11.50;99.90;;;11.08;99.24;100786.19;5075590;28;20102;-62
2021/05/11 03:00:18;;;;;;;19.95;9.02;;;11.40;99.90;;;10.93;100.00;100793.69;5075606;28;20107;-62
2021/05/11 03:02:45;;;;;;;15.82;7.15;;;11.30;99.90;;;11.07;100.00;100788.06;5075500;28;20029;-62
2021/05/11 03:05:13;;;;;;;16.40;6.65;;;11.30;99.90;;;11.15;99.90;100784.34;5075341;28;20116;-61
2021/05/11 03:07:39;;;;;;;16.27;6.45;;;11.20;99.90;;;11.02;100.00;100784.28;5075895;28;20032;-61
2021/05/11 03:10:08;;;;;;;18.40;6.53;;;11.20;99.90;;;10.87;100.00;100776.28;5058548;28;20040;-62
2021/05/11 03:12:34;;;;;;;14.23;7.25;;;11.20;99.90;;;10.76;100.00;100774.97;5076474;28;20029;-60
2021/05/11 03:15:01;;;;;;;20.15;6.68;;;11.20;99.90;;;10.76;100.00;100774.97;5075170;28;20041;-60
2021/05/11 03:17:27;;;;;;;16.80;5.82;;;11.20;99.90;;;10.70;100.00;100778.53;5058359;28;20041;-60
2021/05/11 03:19:53;;;;;;;18.13;6.95;;;11.10;99.90;;;10.68;100.00;100777.03;5075158;28;20037;-61
2021/05/11 03:22:19;;;;;;;12.00;6.47;;;11.10;99.90;;;10.58;100.00;100771.13;5058342;28;20048;-61
2021/05/11 03:24:45;;;;;;;11.80;5.43;;;11.00;99.90;;;10.51;100.00;100773.81;5076100;28;20044;-60
2021/05/11 03:27:13;;;;;;;10.73;4.30;;;11.00;99.90;;;10.48;100.00;100783.25;5075109;28;20094;-61
2021/05/11 03:29:40;;;;;;;19.33;4.75;;;10.90;99.90;;;10.44;100.00;100792.00;5074939;28;20126;-62
2021/05/11 03:32:07;;;;;;;14.68;4.10;;;10.90;99.90;;;10.42;100.00;100794.91;5074751;28;20029;-63
2021/05/11 03:34:38;;;;;;;11.15;4.20;;;10.90;99.90;;;10.37;100.00;100800.13;5074813;28;20032;-62
2021/05/11 03:37:05;;;;;;;12.20;4.20;;;10.80;99.90;;;10.39;100.00;100795.31;5074607;28;20052;-63
2021/05/11 03:39:37;;;;;;;7.05;4.18;;;10.80;99.90;;;10.36;100.00;100801.16;5074551;28;20033;-59
2021/05/11 03:42:12;;;;;;;7.13;3.67;;;10.80;99.90;;;10.31;100.00;100803.63;5058716;28;20020;-62
2021/05/11 03:44:40;;;;;;;7.97;4.53;;;10.70;99.90;;;10.22;100.00;100796.69;5074623;28;20041;-62
2021/05/11 03:47:06;;;;;;;16.40;3.88;;;10.70;99.90;;;10.25;100.00;100799.00;5075798;28;20462;-61
2021/05/11 03:49:32;;;;;;;9.77;3.53;;;10.60;99.90;;;10.23;100.00;100794.81;5074457;28;20032;-64
2021/05/11 03:51:58;;;;;;;12.23;3.60;;;10.60;99.90;;;10.34;100.00;100792.38;5074584;28;20563;-66
2021/05/11 03:54:25;;;;;;;16.75;3.95;;;10.60;99.90;;;10.32;100.00;100791.72;5074605;28;20044;-65
2021/05/11 03:56:50;;;;;;;7.30;3.55;;;10.60;99.90;;;10.41;100.00;100803.28;5074244;28;20063;-63
2021/05/11 03:59:17;;;;;;;13.82;4.32;;;10.50;99.90;;;10.38;100.00;100804.53;5056771;28;20033;-62
2021/05/11 04:01:43;;;;;;;8.45;3.35;;;10.60;99.90;;;10.42;100.00;100804.97;5041046;28;20483;-61
2021/05/11 04:04:09;;;;;;;11.75;3.67;;;10.60;99.90;;;10.37;100.00;100808.28;5074197;28;20024;-66
2021/05/11 04:06:34;;;;;;;8.65;2.97;;;10.60;99.90;;;10.40;100.00;100816.03;5074395;28;20110;-62
2021/05/11 04:09:10;;;;;;;3.85;2.70;;;10.70;99.90;;;10.45;100.00;100816.28;5075396;28;20115;-63
2021/05/11 04:14:20;;;;;;;6.82;4.05;;;10.70;99.90;;;10.47;100.00;100827.81;5074226;28;20106;-61
2021/05/11 04:16:46;;;;;;;5.43;3.08;;;10.70;99.90;;;-145.59;100.00;63944.34;5073822;28;20029;-63
2021/05/11 04:19:13;;;;;;;4.38;2.80;;;10.80;99.90;;;10.78;100.00;100821.91;5075312;28;20139;-61
2021/05/11 04:21:39;;;;;;;8.20;3.97;;;10.80;99.90;;;10.80;100.00;100824.44;5073811;28;20025;-61
2021/05/11 04:24:06;;;;;;;7.63;3.65;;;10.90;99.90;;;10.89;100.00;100834.09;5057013;28;20035;-61
2021/05/11 04:26:34;;;;;;;10.80;4.25;;;11.00;99.90;;;11.00;100.00;100829.97;5075133;28;20036;-61
2021/05/11 04:29:01;;;;;;;8.85;3.15;;;11.10;99.90;;;11.08;100.00;100827.88;5058026;28;20367;-61
2021/05/11 04:31:27;;;;;;;6.38;2.60;;;11.10;99.90;;;11.14;100.00;100821.63;5073877;28;20029;-61
2021/05/11 04:33:56;;;;;;;7.30;3.42;;;11.20;99.90;;;11.24;100.00;100827.53;5075262;28;20033;-62
2021/05/11 04:36:22;;;;;;;8.88;2.92;;;11.30;99.90;;;11.33;100.00;100819.16;5074763;28;20040;-62
2021/05/11 04:38:48;;;;;;;8.98;2.85;;;11.40;99.90;;;11.41;100.00;100827.13;5074999;28;20028;-62
2021/05/11 04:41:14;;;;;;;5.47;2.45;;;11.40;99.90;;;11.47;100.00;100823.59;5073498;28;20051;-61
2021/05/11 04:43:41;;;;;;;7.30;4.10;;;11.40;99.90;;;11.45;100.00;100817.50;5056718;28;20028;-61
2021/05/11 04:46:23;;;;;;;6.85;2.80;;;11.50;99.90;;;11.47;100.00;100815.44;5073413;28;20055;-62
2021/05/11 04:48:51;;;;;;;12.38;3.22;;;11.50;99.90;;;11.46;100.00;100813.75;5059134;28;20031;-61
2021/05/11 04:51:19;;;;;;;12.07;4.05;;;11.50;99.90;;;11.58;100.00;100817.53;5056707;28;20394;-61
2021/05/11 04:53:44;;;;;;;11.73;3.70;;;11.60;99.90;;;11.92;100.00;100817.38;5073332;28;20375;-61
2021/05/11 04:56:10;;;;;;;7.85;3.88;;;11.60;99.90;;;12.08;100.00;100824.28;5073092;28;20039;-60
2021/05/11 04:58:36;;;;;;;9.65;3.00;;;11.70;99.90;;;12.16;100.00;100820.53;5056410;28;20052;-60
2021/05/11 05:01:04;;;;;;;11.82;3.80;;;11.80;99.90;;;12.22;100.00;100819.66;5074344;28;20032;-62
2021/05/11 05:03:33;;;;;;;9.48;2.78;;;11.90;99.90;;;12.18;99.89;100818.44;5056414;28;20405;-62
2021/05/11 05:05:59;;;;;;;10.48;3.30;;;11.90;99.90;;;12.40;99.62;100827.22;5073291;28;20087;-62
2021/05/11 05:08:25;;;;;;;7.60;3.17;;;12.10;99.90;;;12.46;99.03;100829.94;5074731;28;20406;-62
2021/05/11 05:10:51;;;;;;;8.40;3.20;;;12.20;99.90;;;12.50;99.44;100839.38;5039620;28;20033;-62
2021/05/11 05:13:20;;;;;;;8.07;3.25;;;12.30;99.90;;;12.61;99.44;100836.00;5072952;28;20124;-61
2021/05/11 05:15:54;;;;;;;6.88;3.35;;;12.40;99.90;;;12.72;98.61;100834.50;5073445;28;20044;-81
2021/05/11 05:18:21;;;;;;;8.35;3.42;;;12.60;99.90;;;12.86;98.04;100838.03;5074866;28;20047;-70
2021/05/11 05:20:49;;;;;;;9.30;3.72;;;12.70;99.90;;;12.96;97.33;100836.50;5076020;28;20045;-79
2021/05/11 05:23:16;;;;;;;8.40;3.33;;;12.80;99.90;;;13.09;96.94;100843.81;5075297;28;20027;-69
2021/05/11 05:26:06;;;;;;;11.15;4.13;;;12.90;99.90;;;13.10;96.75;100845.47;5057793;28;20157;-74
2021/05/11 05:28:36;;;;;;;10.00;3.03;;;13.00;99.90;;;13.27;96.22;100845.84;5074325;28;20032;-75
2021/05/11 05:31:03;;;;;;;9.20;3.90;;;13.10;99.90;;;13.48;95.47;100848.25;5057621;28;20034;-71
2021/05/11 05:33:37;;;;;;;7.65;3.08;;;13.20;99.90;;;13.74;93.90;100842.63;5074111;28;20033;-74
2021/05/11 05:36:04;;;;;;;;;;;13.40;99.90;;;13.72;94.50;100838.44;5074903;28;20036;-73
2021/05/11 05:38:31;;;;;;;8.27;3.53;;;13.50;99.90;;;14.02;93.64;100839.47;5074942;28;19923;-69
2021/05/11 05:41:12;;;;;;;12.38;3.45;;;13.70;99.90;;;14.16;93.23;100832.81;5057601;28;20028;-71
2021/05/11 05:43:38;;;;;;;15.05;4.20;;;13.90;99.90;;;14.28;92.20;100832.09;5076408;28;20068;-76
2021/05/11 05:46:03;;;;;;;9.93;3.55;;;14.10;99.90;;;14.53;91.79;100831.03;5057550;28;20051;-81
2021/05/11 05:48:29;;;;;;;6.18;3.00;;;14.20;99.90;;;14.98;88.97;100827.97;5074480;28;20033;-81
2021/05/11 05:50:58;;;;;;;15.55;3.78;;;14.40;99.90;;;15.10;88.03;100828.03;5074049;28;20067;-78
2021/05/11 05:53:31;;;;;;;13.25;3.60;;;14.70;99.90;;;15.78;86.96;100819.50;5074679;28;20032;-71
2021/05/11 05:55:57;;;;;;;11.38;3.78;;;15.10;99.90;;;17.25;82.39;100826.50;5075893;28;20044;-71
2021/05/11 05:58:23;;;;;;;9.02;3.35;;;15.90;99.90;;;18.27;78.46;100823.66;5076715;28;20036;-74
2021/05/11 06:00:53;;;;;;;9.02;3.60;;;16.70;99.90;;;19.41;74.53;100825.78;5059471;28;20035;-77
2021/05/11 06:06:07;;;;;;;11.85;2.45;;;19.00;99.90;;;23.27;58.23;100823.25;5074516;28;20040;-75
2021/05/11 06:08:34;;;;;;;8.50;2.88;;;20.60;99.90;;;24.38;46.63;100820.88;5074674;28;20081;-75
2021/05/11 06:14:26;;;;;;;8.25;3.22;;;22.80;96.10;;;25.40;41.50;100832.47;5076881;28;20395;-75
2021/05/11 06:19:23;;;;;;;8.70;2.50;;;24.40;93.30;;;27.36;35.97;100828.56;5082527;28;20509;-69
2021/05/11 06:21:49;;;;;;;5.82;2.92;;;25.30;91.40;;;27.88;35.16;100823.50;5065392;28;20041;-80
2021/05/11 06:24:15;;;;;;;9.50;3.22;;;26.00;90.60;;;29.16;32.55;100820.63;5085228;28;20029;-75
2021/05/11 06:26:41;;;;;;;6.00;2.33;;;26.90;89.80;;;30.45;30.29;100822.69;5067138;28;20054;-73
2021/05/11 06:29:09;;;;;;;6.75;2.75;;;28.00;86.40;;;31.10;28.80;100813.06;5080886;28;20028;-76
2021/05/11 06:31:35;;;;;;;7.28;1.98;;;28.80;83.10;;;31.69;27.70;100815.84;5077524;28;20387;-76
2021/05/11 06:34:02;;;;;;;9.63;2.45;;;29.50;80.50;;;30.98;28.06;100818.56;5057543;28;20518;-80
2021/05/11 06:36:28;;;;;;;7.32;2.10;;;29.40;78.50;;;30.78;29.37;100808.88;5074396;28;20036;-73
2021/05/11 06:38:54;;;;;;;6.57;2.10;;;29.30;79.30;;;30.67;27.98;100813.22;5077056;28;20099;-75
2021/05/11 06:41:20;;;;;;;11.02;2.78;;;29.60;77.30;;;31.35;27.11;100817.72;5060049;28;20112;-77
2021/05/11 06:43:47;;;;;;;5.53;2.10;;;29.90;76.60;;;32.16;26.03;100819.25;5075732;28;20029;-80
2021/05/11 06:49:09;;;;;;;10.02;2.60;;;30.40;73.70;;;30.96;27.08;100815.25;5076355;28;20032;-81
2021/05/11 06:54:10;;;;;;;8.27;1.98;;;30.40;72.30;;;32.18;24.99;100821.72;5073120;28;20078;-71
2021/05/11 06:56:38;;;;;;;7.85;3.25;;;30.60;71.10;;;30.96;26.96;100818.06;5055338;28;20036;-66
2021/05/11 06:59:04;;;;;;;5.53;2.35;;;30.40;70.90;;;31.89;25.78;100819.81;5071620;28;20040;-65
2021/05/11 07:01:30;;;;;;;6.47;3.05;;;30.30;71.00;;;31.44;25.60;100816.81;5072836;28;20067;-67
2021/05/11 07:03:56;;;;;;;9.50;2.28;;;30.40;70.40;;;30.17;26.91;100815.78;5071729;28;20056;-67
2021/05/11 07:06:23;;;;;;;5.32;1.98;;;30.00;69.30;;;30.12;28.16;100822.44;5055085;28;20037;-67
2021/05/11 07:08:59;;;;;;;5.70;2.10;;;29.60;70.70;;;29.46;28.38;100826.50;5055221;28;20027;-65
2021/05/11 07:14:03;;;;;;;5.68;1.50;;;29.00;71.90;;;29.66;28.55;100817.44;5071938;28;20399;-65
2021/05/11 07:16:29;;;;;;;4.57;2.15;;;28.90;71.00;;;29.68;28.59;100826.38;5054807;28;20040;-66
2021/05/11 07:18:55;;;;;;;4.53;2.47;;;28.80;71.20;;;30.35;27.39;100825.84;5071446;28;20076;-65
2021/05/11 07:21:21;;;;;;;5.80;2.05;;;29.00;70.90;;;31.15;27.03;100817.69;5071902;28;20512;-63
2021/05/11 07:23:47;;;;;;;5.40;2.13;;;29.30;71.10;;;30.61;26.93;100829.44;5055491;28;20025;-66
2021/05/11 07:31:32;;;;;;;4.25;1.85;;;28.80;69.90;;;28.40;31.43;100825.53;5072744;28;20521;-64
2021/05/11 07:34:00;;;;;;;4.43;1.55;;;28.40;72.20;;;28.14;30.02;100816.09;5056435;28;20056;-66
2021/05/11 07:36:25;;;;;;;4.22;1.50;;;28.00;70.20;;;27.92;31.04;100818.88;5075008;28;20036;-69
2021/05/11 07:38:52;;;;;;;5.35;1.80;;;27.90;70.90;;;27.81;30.89;100810.75;5058653;28;20067;-69
2021/05/11 07:41:19;;;;;;;3.10;1.48;;;27.70;71.30;;;28.13;30.23;100814.44;5075077;28;20486;-68
2021/05/11 07:43:49;;;;;;;7.55;2.03;;;27.90;70.90;;;27.38;31.32;100813.13;5074842;28;20040;-67
2021/05/11 08:05:33;;;;;;;5.63;1.67;;;25.70;73.20;;;23.62;38.02;100804.72;5074999;28;20048;-71
2021/05/11 08:16:02;;;;;;;5.00;1.90;;;21.60;81.70;;;20.87;47.59;100806.00;5065706;28;20054;-72
2021/05/11 08:29:31;;;;;;;6.95;2.58;;;20.80;87.60;;;21.86;48.64;100797.41;5075638;28;20122;-71
2021/05/11 08:31:57;;;;;;;6.30;2.42;;;21.20;89.70;;;23.14;44.58;100784.97;5074032;28;20551;-71
2021/05/11 08:34:24;;;;;;;6.68;3.00;;;22.10;86.30;;;23.88;41.76;100778.41;5074821;28;20505;-70
2021/05/11 08:36:50;;;;;;;6.43;2.80;;;23.00;84.40;;;24.12;41.20;100770.97;5074565;28;20024;-69
2021/05/11 08:39:16;;;;;;;6.60;4.20;;;23.50;83.20;;;23.89;42.75;100791.22;5074588;28;20071;-72
2021/05/11 08:41:42;;;;;;;7.68;3.70;;;23.60;83.20;;;24.47;40.80;100785.69;5075413;28;20033;-71
2021/05/11 08:44:14;;;;;;;11.07;4.57;;;23.90;83.20;;;24.38;41.37;100787.47;5076073;28;20127;-73
2021/05/11 08:46:41;;;;;;;8.70;3.72;;;24.10;83.10;;;22.85;45.46;100782.06;5074928;28;20572;-70
2021/05/11 08:49:11;;;;;;;6.78;3.42;;;23.70;83.60;;;22.05;48.90;100784.69;5075708;28;20039;-70
2021/05/11 08:51:55;;;;;;;5.28;3.28;;;23.00;85.30;;;22.26;48.81;100784.66;5074234;28;20064;-71
2021/05/11 08:54:41;;;;;;;10.85;4.75;;;22.60;86.70;;;21.67;51.62;100799.88;5073984;28;20037;-73
2021/05/11 09:04:35;;;;;;;9.10;5.50;;;21.80;90.30;;;21.10;55.37;100802.78;5075202;28;20128;-69
2021/05/11 09:08:54;;;;;;;8.05;5.85;;;20.80;92.40;;;19.97;63.66;100796.81;5075545;28;20037;-78
2021/05/11 09:28:33;;;;;;;8.32;5.78;;;21.80;92.70;;;21.50;56.18;100815.94;5073702;28;20564;-75
2021/05/11 09:31:19;;;;;;;7.45;4.43;;;21.90;92.20;;;21.26;57.49;100815.56;5074257;28;20467;-76
2021/05/11 09:34:04;;;;;;;5.68;4.78;;;21.60;92.60;;;20.93;59.78;100810.44;5073212;28;20024;-69
2021/05/11 09:56:35;;;;;;;8.35;6.05;;;21.40;93.80;;;20.95;60.87;100808.22;5073055;28;20395;-68
2021/05/11 10:39:24;;;;;;;13.80;6.88;;;18.40;99.90;;;18.48;75.68;100811.84;5073851;28;20060;-64
2021/05/11 10:42:39;;;;;;;11.15;7.65;;;18.50;99.90;;;18.73;74.74;100803.16;5059334;28;20033;-67
2021/05/11 10:48:26;;;;;;;11.13;7.05;;;18.80;99.90;;;18.53;78.13;100791.78;5072637;28;20041;-65
2021/05/11 10:50:57;;;;;;;12.93;6.88;;;18.70;99.90;;;18.36;77.28;100786.31;5073538;28;20031;-65
2021/05/11 10:54:00;;;;;;;12.57;7.70;;;18.50;99.90;;;18.37;79.26;100787.16;5071995;28;20036;-73
2021/05/11 11:01:49;;;;;;;12.77;6.85;;;18.60;99.90;;;19.03;74.04;100786.13;5073647;28;20044;-66
2021/05/11 11:04:21;;;;;;;9.63;6.35;;;18.90;99.90;;;19.22;72.23;100790.22;5056122;28;20100;-66
2021/05/11 11:07:03;;;;;;;9.32;7.13;;;19.00;99.90;;;19.34;72.61;100786.47;5071693;28;20048;-67
2021/05/11 11:09:33;;;;;;;9.48;6.40;;;19.20;99.90;;;19.26;75.07;100773.16;5092366;28;20037;-66
2021/05/11 11:12:01;;;;;;;13.10;7.53;;;19.20;99.90;;;18.96;77.42;100774.44;5075545;28;20487;-64
2021/05/11 11:14:40;;;;;;;7.47;6.45;;;19.10;99.90;;;19.04;78.90;100779.53;5075434;28;20033;-66
2021/05/11 11:17:14;;;;;;;12.30;6.43;;;19.00;99.90;;;19.19;78.32;100768.66;5058887;28;20044;-65
2021/05/11 11:19:40;;;;;;;11.55;7.28;;;19.00;99.90;;;19.23;78.21;100766.22;5075848;28;20522;-66
2021/05/11 11:25:00;;;;;;;8.48;6.13;;;19.30;99.90;;;19.98;72.30;100753.41;5076803;28;20056;-66
2021/05/11 11:27:29;;;;;;;12.05;6.63;;;19.60;99.90;;;19.91;69.96;100754.47;5059168;28;20093;-67
2021/05/11 11:30:06;;;;;;;9.57;6.72;;;19.80;99.90;;;20.80;67.83;100733.44;5075181;28;20537;-65
2021/05/11 11:32:33;;;;;;;10.73;6.95;;;20.20;99.90;;;21.36;65.14;100738.06;5076580;28;20479;-64
2021/05/11 11:35:00;;;;;;;12.40;6.50;;;20.60;99.70;;;21.54;63.08;100738.66;5075232;28;20035;-67
2021/05/11 11:37:30;;;;;;;14.07;7.05;;;21.00;98.70;;;22.07;60.76;100727.03;5058994;28;20048;-65
2021/05/11 11:40:02;;;;;;;8.13;6.18;;;21.30;98.30;;;22.14;61.07;100735.03;5075328;28;20025;-65
2021/05/11 11:42:37;;;;;;;10.60;7.05;;;21.60;98.00;;;22.31;59.15;100723.66;5058872;28;20523;-67
2021/05/11 11:45:11;;;;;;;9.55;6.25;;;21.80;97.50;;;22.29;59.60;100725.88;5075323;28;20028;-66
2021/05/11 11:47:42;;;;;;;10.65;7.57;;;21.90;97.10;;;22.32;60.14;100722.53;5059623;28;20070;-65
2021/05/11 11:50:12;;;;;;;10.85;6.90;;;22.00;97.20;;;22.89;58.03;100712.94;5075509;28;20481;-67
2021/05/11 11:57:55;;;;;;;13.23;7.10;;;22.50;96.10;;;22.37;56.24;100716.97;5059835;28;20037;-65
2021/05/11 12:00:34;;;;;;;12.83;6.90;;;22.50;95.50;;;22.62;57.30;100725.22;5074859;28;20037;-66
2021/05/11 12:03:11;;;;;;;10.00;6.18;;;22.50;96.00;;;22.72;56.08;100730.72;5058405;28;20032;-67
2021/05/11 12:05:49;;;;;;;11.55;6.78;;;22.40;95.90;;;22.35;57.83;100738.59;5075976;28;20128;-67
2021/05/11 12:08:30;;;;;;;11.10;7.82;;;22.50;95.70;;;22.37;57.24;100748.31;5059159;28;20040;-67
2021/05/11 12:11:06;;;;;;;12.63;8.15;;;22.10;95.50;;;21.86;58.68;100752.25;5074791;28;20490;-65
2021/05/11 12:13:33;;;;;;;11.18;7.43;;;22.00;95.60;;;21.80;58.71;100759.72;5075244;28;20071;-65
2021/05/11 12:16:22;;;;;;;10.98;7.40;;;21.80;95.70;;;21.72;60.03;100768.59;5075071;28;20059;-66
2021/05/11 12:19:09;;;;;;;14.10;7.78;;;21.80;96.30;;;21.22;64.90;100781.22;5090382;28;20133;-67
2021/05/11 12:21:53;;;;;;;13.60;7.60;;;21.50;97.60;;;21.06;66.51;100771.19;5058395;28;20087;-66
2021/05/11 12:24:24;;;;;;;13.68;7.47;;;21.10;98.40;;;20.42;67.77;100776.97;5058642;28;20167;-66
2021/05/11 12:26:50;;;;;;;12.07;7.47;;;20.70;98.30;;;20.11;69.67;100786.09;5057939;28;20032;-68
2021/05/11 12:29:18;;;;;;;13.05;7.65;;;20.40;98.90;;;20.02;73.44;100783.00;5057860;28;20548;-66
2021/05/11 12:31:50;;;;;;;11.60;8.70;;;20.20;99.90;;;19.94;72.38;100786.25;5057581;28;20028;-67
2021/05/11 12:34:25;;;;;;;12.48;8.00;;;20.10;99.90;;;19.99;73.29;100785.47;5074165;28;20044;-68
2021/05/11 12:36:59;;;;;;;12.65;7.65;;;19.90;99.90;;;19.89;76.99;100781.53;5058677;28;20028;-68
2021/05/11 12:39:40;;;;;;;14.30;8.65;;;19.80;99.90;;;19.60;77.47;100777.41;5074377;28;20033;-72
2021/05/11 12:42:23;;;;;;;10.77;8.30;;;19.70;99.90;;;19.52;78.52;100778.72;5043495;28;20131;-67
2021/05/11 12:45:14;;;;;;;10.57;8.15;;;19.40;99.90;;;19.35;76.79;100779.88;5074175;28;20082;-70
2021/05/11 12:47:42;;;;;;;12.20;8.68;;;19.30;99.90;;;19.40;78.60;100780.78;5057342;28;20032;-66
2021/05/11 12:50:19;;;;;;;13.63;8.75;;;19.20;99.90;;;19.36;80.27;100795.34;5073565;28;20024;-68
2021/05/11 12:52:47;;;;;;;11.85;8.20;;;19.20;99.90;;;19.30;79.32;100785.34;5074938;28;20111;-66
2021/05/11 12:55:32;;;;;;;13.15;8.27;;;19.10;99.90;;;18.96;80.67;100785.47;5073124;28;20036;-68
2021/05/11 12:58:10;;;;;;;14.68;8.68;;;19.00;99.90;;;18.91;81.83;100793.72;5073602;28;20119;-68
2021/05/11 13:00:45;;;;;;;16.25;8.07;;;18.90;99.90;;;18.88;79.54;100794.22;5073411;28;20045;-69
2021/05/11 13:03:33;;;;;;;10.38;7.93;;;18.80;99.90;;;19.09;80.52;100796.13;5058117;28;20033;-67
2021/05/11 13:30:08;;;;;;;14.43;8.90;;;18.90;99.90;;;18.93;86.48;100827.41;5074563;28;19912;-71
2021/05/11 13:33:01;;;;;;;12.23;8.52;;;18.80;99.90;;;18.80;86.24;100841.56;5075099;28;20568;-71
2021/05/11 13:35:27;;;;;;;13.63;8.05;;;18.80;99.90;;;18.73;86.72;100851.97;5061354;28;20467;-70
2021/05/11 13:37:53;;;;;;;11.07;8.32;;;18.70;99.90;;;18.78;87.53;100852.84;5073601;28;20129;-71
2021/05/11 13:40:19;;;;;;;10.60;7.50;;;18.60;99.90;;;18.78;85.73;100846.50;5056881;28;20543;-64
2021/05/11 13:42:46;;;;;;;11.80;7.03;;;18.60;99.90;;;18.70;84.93;100835.91;5073091;28;20418;-69
2021/05/11 13:45:12;;;;;;;10.80;7.32;;;18.40;99.90;;;18.64;85.55;100836.91;5056190;28;20028;-64
2021/05/11 13:47:40;;;;;;;15.50;7.82;;;18.30;99.90;;;18.58;85.37;100833.25;5072584;28;20086;-70
2021/05/11 13:50:12;;;;;;;10.52;7.78;;;18.20;99.90;;;18.31;83.96;100826.72;5072576;28;20025;-70
2021/05/11 13:52:38;;;;;;;7.93;6.15;;;18.10;99.90;;;18.25;84.92;100828.59;5056468;28;20055;-68
2021/05/11 13:55:12;;;;;;;9.02;6.07;;;18.00;99.90;;;18.09;83.29;100824.75;5056118;28;20547;-69
2021/05/11 14:03:07;;;;;;;;;;;17.60;99.90;;;17.59;84.19;100832.94;5074746;28;20043;-65
2021/05/11 14:05:33;;;;;;;7.70;4.22;;;17.50;99.90;;;17.45;84.08;100827.97;5072520;28;19916;-70
2021/05/11 14:07:59;;;;;;;7.05;3.50;;;17.40;99.90;;;17.31;85.01;100831.00;5072742;28;20032;-70
2021/05/11 14:10:26;;;;;;;4.15;2.90;;;17.40;99.90;;;17.19;84.88;100837.63;5072547;28;20117;-63
2021/05/11 14:12:52;;;;;;;5.97;2.95;;;17.30;99.90;;;17.10;84.04;100847.34;5072712;28;20031;-67
2021/05/11 14:15:17;;;;;;;4.97;2.47;;;17.30;99.90;;;17.03;83.78;100836.50;5072482;28;20036;-66
2021/05/11 14:17:43;;;;;;;6.95;2.67;;;17.20;99.90;;;16.90;83.96;100832.09;5072435;28;20024;-68
2021/05/11 14:20:10;;;;;;;4.78;3.05;;;17.20;99.90;;;16.62;85.74;100826.50;5055413;28;20098;-69
2021/05/11 14:22:36;;;;;;;5.35;2.55;;;16.90;99.90;;;16.43;87.74;100825.78;5055505;28;20052;-65
2021/05/11 14:25:03;;;;;;;5.70;2.70;;;16.70;99.90;;;16.07;87.81;100815.00;5073609;28;20068;-66
2021/05/11 14:27:29;;;;;;;3.63;2.00;;;16.50;99.90;;;15.89;90.36;100821.44;5055519;28;20135;-71